Wilberfoss, United Kingdom
Current Conditions -  °F | °C
As of 2:50 AM on Monday 22 Dec 2014 (Local Time) from EGXU Reporting Station
Overcast Overcast  
Wind Chill: 57°   Ceiling: 2100
Heat Index: 57°   Visibility: 6mi
Dew Point: 57°   Wind: 29mph
Humidity: 100%   Direction: 250°WSW
Pressure: 29.74"   Gusts: 43mph
Location:  53.95°N, 0.89°W
Report Text: EGXU 220250Z AUTO 25025G37KT 9999 // OVC021/// 14/14 Q1007
Loading
Personal Weather Stations






























Interactive Weather Map New forecast layout! Learn more

10-Day Weather Forecast

Advertisements
Track Severe Weather on mobile